sensor_id;sensor_type;location;lat;lon;timestamp;pressure;altitude;pressure_sealevel;temperature;humidity
68141;BME280;54941;52.220;104.306;2022-11-20T00:00:46;96415.19;;;-12.00;84.03
68141;BME280;54941;52.220;104.306;2022-11-20T00:03:13;96413.59;;;-12.20;84.14
68141;BME280;54941;52.220;104.306;2022-11-20T00:05:40;96414.19;;;-12.33;84.86
68141;BME280;54941;52.220;104.306;2022-11-20T00:08:07;96409.53;;;-12.41;84.45
68141;BME280;54941;52.220;104.306;2022-11-20T00:10:36;96416.00;;;-12.37;85.11
68141;BME280;54941;52.220;104.306;2022-11-20T00:13:03;96412.28;;;-12.47;84.29
68141;BME280;54941;52.220;104.306;2022-11-20T00:15:29;96403.56;;;-12.56;84.42
68141;BME280;54941;52.220;104.306;2022-11-20T00:17:56;96413.88;;;-12.65;83.47
68141;BME280;54941;52.220;104.306;2022-11-20T00:20:22;96406.44;;;-12.85;83.78
68141;BME280;54941;52.220;104.306;2022-11-20T00:22:50;96408.09;;;-12.86;83.33
68141;BME280;54941;52.220;104.306;2022-11-20T00:25:17;96416.72;;;-12.74;84.35
68141;BME280;54941;52.220;104.306;2022-11-20T00:27:43;96408.56;;;-12.76;84.51
68141;BME280;54941;52.220;104.306;2022-11-20T00:30:10;96412.88;;;-12.81;84.46
68141;BME280;54941;52.220;104.306;2022-11-20T00:32:36;96417.44;;;-12.91;84.11
68141;BME280;54941;52.220;104.306;2022-11-20T00:35:03;96415.13;;;-12.75;84.72
68141;BME280;54941;52.220;104.306;2022-11-20T00:37:30;96413.44;;;-12.74;84.07
68141;BME280;54941;52.220;104.306;2022-11-20T00:39:58;96412.94;;;-12.62;84.62
68141;BME280;54941;52.220;104.306;2022-11-20T00:42:24;96421.19;;;-12.82;84.42
68141;BME280;54941;52.220;104.306;2022-11-20T00:44:51;96414.50;;;-12.80;84.67
68141;BME280;54941;52.220;104.306;2022-11-20T00:47:17;96419.47;;;-12.80;84.49
68141;BME280;54941;52.220;104.306;2022-11-20T00:49:44;96423.31;;;-12.93;84.90
68141;BME280;54941;52.220;104.306;2022-11-20T00:52:10;96422.31;;;-12.89;84.37
68141;BME280;54941;52.220;104.306;2022-11-20T00:54:36;96418.53;;;-12.98;83.80
68141;BME280;54941;52.220;104.306;2022-11-20T00:57:04;96427.03;;;-12.83;84.86
68141;BME280;54941;52.220;104.306;2022-11-20T00:59:31;96423.63;;;-12.60;85.07
68141;BME280;54941;52.220;104.306;2022-11-20T01:01:57;96428.22;;;-12.71;85.55
68141;BME280;54941;52.220;104.306;2022-11-20T01:04:24;96427.53;;;-12.95;86.26
68141;BME280;54941;52.220;104.306;2022-11-20T01:06:50;96420.34;;;-13.01;85.80
68141;BME280;54941;52.220;104.306;2022-11-20T01:09:17;96416.06;;;-12.98;86.60
68141;BME280;54941;52.220;104.306;2022-11-20T01:11:44;96419.53;;;-13.02;87.21
68141;BME280;54941;52.220;104.306;2022-11-20T01:14:15;96418.59;;;-12.99;87.24
68141;BME280;54941;52.220;104.306;2022-11-20T01:16:43;96428.47;;;-12.98;87.52
68141;BME280;54941;52.220;104.306;2022-11-20T01:19:12;96417.06;;;-13.02;86.90
68141;BME280;54941;52.220;104.306;2022-11-20T01:21:39;96410.59;;;-13.06;87.64
68141;BME280;54941;52.220;104.306;2022-11-20T01:24:08;96404.03;;;-12.87;86.81
68141;BME280;54941;52.220;104.306;2022-11-20T01:26:37;96412.38;;;-12.89;86.89
68141;BME280;54941;52.220;104.306;2022-11-20T01:29:05;96408.66;;;-12.99;86.77
68141;BME280;54941;52.220;104.306;2022-11-20T01:31:34;96404.53;;;-12.99;86.78
68141;BME280;54941;52.220;104.306;2022-11-20T01:34:02;96402.03;;;-12.99;86.19
68141;BME280;54941;52.220;104.306;2022-11-20T01:36:30;96401.03;;;-13.13;86.51
68141;BME280;54941;52.220;104.306;2022-11-20T01:38:59;96397.06;;;-13.17;86.37
68141;BME280;54941;52.220;104.306;2022-11-20T01:41:27;96401.38;;;-13.22;86.05
68141;BME280;54941;52.220;104.306;2022-11-20T01:43:53;96402.38;;;-13.26;86.01
68141;BME280;54941;52.220;104.306;2022-11-20T01:46:20;96401.66;;;-13.30;86.22
68141;BME280;54941;52.220;104.306;2022-11-20T01:48:52;96397.78;;;-13.36;85.36
68141;BME280;54941;52.220;104.306;2022-11-20T01:51:24;96391.59;;;-13.25;85.54
68141;BME280;54941;52.220;104.306;2022-11-20T01:53:54;96384.53;;;-13.14;85.50
68141;BME280;54941;52.220;104.306;2022-11-20T01:56:24;96399.22;;;-12.71;84.70
68141;BME280;54941;52.220;104.306;2022-11-20T01:58:55;96389.09;;;-12.46;84.62
68141;BME280;54941;52.220;104.306;2022-11-20T02:01:23;96380.63;;;-12.61;84.54
68141;BME280;54941;52.220;104.306;2022-11-20T02:03:51;96387.09;;;-12.19;84.94
68141;BME280;54941;52.220;104.306;2022-11-20T02:06:23;96370.88;;;-11.55;83.94
68141;BME280;54941;52.220;104.306;2022-11-20T02:08:50;96364.53;;;-11.09;81.97
68141;BME280;54941;52.220;104.306;2022-11-20T02:11:18;96367.50;;;-10.85;80.25
68141;BME280;54941;52.220;104.306;2022-11-20T02:13:45;96370.44;;;-10.77;79.24
68141;BME280;54941;52.220;104.306;2022-11-20T02:16:15;96367.03;;;-10.12;77.79
68141;BME280;54941;52.220;104.306;2022-11-20T02:18:43;96366.59;;;-10.18;76.63
68141;BME280;54941;52.220;104.306;2022-11-20T02:21:24;96359.41;;;-9.62;75.71
68141;BME280;54941;52.220;104.306;2022-11-20T02:24:03;96358.94;;;-9.68;74.52
68141;BME280;54941;52.220;104.306;2022-11-20T02:26:32;96356.50;;;-9.54;73.72
68141;BME280;54941;52.220;104.306;2022-11-20T02:29:00;96357.78;;;-9.63;73.83
68141;BME280;54941;52.220;104.306;2022-11-20T02:31:28;96359.63;;;-9.51;74.03
68141;BME280;54941;52.220;104.306;2022-11-20T02:33:55;96361.03;;;-9.76;73.04
68141;BME280;54941;52.220;104.306;2022-11-20T02:36:25;96349.84;;;-9.85;73.52
68141;BME280;54941;52.220;104.306;2022-11-20T02:38:52;96351.69;;;-9.57;73.23
68141;BME280;54941;52.220;104.306;2022-11-20T02:41:20;96356.75;;;-9.29;72.89
68141;BME280;54941;52.220;104.306;2022-11-20T02:43:47;96352.56;;;-9.28;72.04
68141;BME280;54941;52.220;104.306;2022-11-20T02:46:13;96342.34;;;-9.24;71.71
68141;BME280;54941;52.220;104.306;2022-11-20T02:48:39;96351.78;;;-8.57;70.69
68141;BME280;54941;52.220;104.306;2022-11-20T02:51:06;96336.72;;;-8.00;69.46
68141;BME280;54941;52.220;104.306;2022-11-20T02:53:32;96335.81;;;-6.56;66.53
68141;BME280;54941;52.220;104.306;2022-11-20T02:55:59;96336.91;;;-6.98;64.52
68141;BME280;54941;52.220;104.306;2022-11-20T02:58:27;96334.91;;;-6.93;64.77
68141;BME280;54941;52.220;104.306;2022-11-20T03:00:53;96329.88;;;-6.29;64.11
68141;BME280;54941;52.220;104.306;2022-11-20T03:03:20;96321.69;;;-6.08;63.13
68141;BME280;54941;52.220;104.306;2022-11-20T03:05:46;96324.09;;;-6.55;64.52
68141;BME280;54941;52.220;104.306;2022-11-20T03:08:12;96314.78;;;-6.17;64.06
68141;BME280;54941;52.220;104.306;2022-11-20T03:10:39;96320.06;;;-5.96;64.11
68141;BME280;54941;52.220;104.306;2022-11-20T03:13:05;96307.81;;;-5.88;62.59
68141;BME280;54941;52.220;104.306;2022-11-20T03:15:35;96322.16;;;-6.39;63.55
68141;BME280;54941;52.220;104.306;2022-11-20T03:18:01;96315.84;;;-5.96;63.04
68141;BME280;54941;52.220;104.306;2022-11-20T03:20:28;96317.59;;;-6.58;64.57
68141;BME280;54941;52.220;104.306;2022-11-20T03:22:55;96306.56;;;-6.55;65.15
68141;BME280;54941;52.220;104.306;2022-11-20T03:25:21;96302.88;;;-6.26;63.70
68141;BME280;54941;52.220;104.306;2022-11-20T03:27:48;96301.19;;;-6.25;64.01
68141;BME280;54941;52.220;104.306;2022-11-20T03:30:14;96290.56;;;-5.93;62.88
68141;BME280;54941;52.220;104.306;2022-11-20T03:32:42;96292.03;;;-5.90;62.16
68141;BME280;54941;52.220;104.306;2022-11-20T03:35:09;96282.53;;;-5.98;62.68
68141;BME280;54941;52.220;104.306;2022-11-20T03:37:36;96284.03;;;-5.60;62.63
68141;BME280;54941;52.220;104.306;2022-11-20T03:40:03;96274.19;;;-5.74;62.38
68141;BME280;54941;52.220;104.306;2022-11-20T03:42:30;96273.09;;;-5.83;61.82
68141;BME280;54941;52.220;104.306;2022-11-20T03:44:56;96268.28;;;-5.97;62.53
68141;BME280;54941;52.220;104.306;2022-11-20T03:47:23;96279.47;;;-5.31;60.93
68141;BME280;54941;52.220;104.306;2022-11-20T03:49:50;96265.53;;;-5.70;60.49
68141;BME280;54941;52.220;104.306;2022-11-20T03:52:17;96267.09;;;-5.11;60.48
68141;BME280;54941;52.220;104.306;2022-11-20T03:54:43;96263.47;;;-4.62;58.46
68141;BME280;54941;52.220;104.306;2022-11-20T03:57:10;96263.78;;;-5.46;59.52
68141;BME280;54941;52.220;104.306;2022-11-20T03:59:36;96261.78;;;-6.00;63.74
68141;BME280;54941;52.220;104.306;2022-11-20T04:02:03;96258.69;;;-5.68;62.76
68141;BME280;54941;52.220;104.306;2022-11-20T04:04:29;96251.34;;;-5.48;62.26
68141;BME280;54941;52.220;104.306;2022-11-20T04:06:57;96244.50;;;-5.92;62.93
68141;BME280;54941;52.220;104.306;2022-11-20T04:09:24;96232.44;;;-5.75;63.44
68141;BME280;54941;52.220;104.306;2022-11-20T04:11:50;96228.19;;;-5.51;62.73
68141;BME280;54941;52.220;104.306;2022-11-20T04:14:17;96219.38;;;-6.39;63.87
68141;BME280;54941;52.220;104.306;2022-11-20T04:16:43;96216.84;;;-6.26;64.03
68141;BME280;54941;52.220;104.306;2022-11-20T04:19:11;96212.53;;;-6.01;65.18
68141;BME280;54941;52.220;104.306;2022-11-20T04:21:38;96202.41;;;-6.35;67.68
68141;BME280;54941;52.220;104.306;2022-11-20T04:24:07;96206.38;;;-6.44;68.73
68141;BME280;54941;52.220;104.306;2022-11-20T04:26:34;96201.38;;;-6.44;69.53
68141;BME280;54941;52.220;104.306;2022-11-20T04:29:00;96191.81;;;-6.15;69.80
68141;BME280;54941;52.220;104.306;2022-11-20T04:31:28;96190.25;;;-6.05;68.86
68141;BME280;54941;52.220;104.306;2022-11-20T04:33:55;96189.16;;;-6.49;68.88
68141;BME280;54941;52.220;104.306;2022-11-20T04:36:23;96188.47;;;-6.03;69.42
68141;BME280;54941;52.220;104.306;2022-11-20T04:38:51;96187.94;;;-5.96;69.67
68141;BME280;54941;52.220;104.306;2022-11-20T04:41:20;96179.72;;;-5.86;69.14
68141;BME280;54941;52.220;104.306;2022-11-20T04:43:47;96179.59;;;-5.85;69.11
68141;BME280;54941;52.220;104.306;2022-11-20T04:46:13;96179.59;;;-5.85;70.14
68141;BME280;54941;52.220;104.306;2022-11-20T04:48:40;96174.16;;;-4.88;67.75
68141;BME280;54941;52.220;104.306;2022-11-20T04:51:06;96174.72;;;-5.75;68.42
68141;BME280;54941;52.220;104.306;2022-11-20T04:53:33;96179.50;;;-5.15;68.97
68141;BME280;54941;52.220;104.306;2022-11-20T04:56:00;96168.53;;;-5.82;70.21
68141;BME280;54941;52.220;104.306;2022-11-20T04:58:31;96173.19;;;-6.00;72.06
68141;BME280;54941;52.220;104.306;2022-11-20T05:01:01;96181.44;;;-5.76;71.15
68141;BME280;54941;52.220;104.306;2022-11-20T05:03:28;96175.03;;;-5.91;71.81
68141;BME280;54941;52.220;104.306;2022-11-20T05:05:55;96175.00;;;-5.56;72.26
68141;BME280;54941;52.220;104.306;2022-11-20T05:08:21;96170.88;;;-5.57;71.76
68141;BME280;54941;52.220;104.306;2022-11-20T05:10:47;96174.66;;;-5.63;72.37
68141;BME280;54941;52.220;104.306;2022-11-20T05:13:14;96167.00;;;-5.61;72.24
68141;BME280;54941;52.220;104.306;2022-11-20T05:15:42;96160.63;;;-5.43;72.49
68141;BME280;54941;52.220;104.306;2022-11-20T05:18:08;96144.81;;;-5.32;72.08
68141;BME280;54941;52.220;104.306;2022-11-20T05:20:35;96144.53;;;-5.52;72.64
68141;BME280;54941;52.220;104.306;2022-11-20T05:23:01;96138.97;;;-5.11;71.57
68141;BME280;54941;52.220;104.306;2022-11-20T05:25:28;96148.78;;;-5.19;72.83
68141;BME280;54941;52.220;104.306;2022-11-20T05:27:54;96142.16;;;-4.98;72.04
68141;BME280;54941;52.220;104.306;2022-11-20T05:30:21;96126.03;;;-4.95;72.47
68141;BME280;54941;52.220;104.306;2022-11-20T05:32:48;96132.91;;;-5.08;72.37
68141;BME280;54941;52.220;104.306;2022-11-20T05:35:15;96122.97;;;-4.99;72.27
68141;BME280;54941;52.220;104.306;2022-11-20T05:37:42;96124.25;;;-5.15;72.74
68141;BME280;54941;52.220;104.306;2022-11-20T05:40:09;96118.63;;;-4.85;72.57
68141;BME280;54941;52.220;104.306;2022-11-20T05:42:36;96112.31;;;-4.80;71.54
68141;BME280;54941;52.220;104.306;2022-11-20T05:45:03;96129.28;;;-5.15;72.62
68141;BME280;54941;52.220;104.306;2022-11-20T05:47:32;96127.31;;;-4.89;72.39
68141;BME280;54941;52.220;104.306;2022-11-20T05:50:01;96129.72;;;-4.88;72.41
68141;BME280;54941;52.220;104.306;2022-11-20T05:52:30;96125.59;;;-5.00;72.38
68141;BME280;54941;52.220;104.306;2022-11-20T05:54:56;96113.94;;;-4.90;72.93
68141;BME280;54941;52.220;104.306;2022-11-20T05:57:23;96125.16;;;-5.05;72.65
68141;BME280;54941;52.220;104.306;2022-11-20T05:59:50;96125.22;;;-4.73;72.00
68141;BME280;54941;52.220;104.306;2022-11-20T06:02:16;96116.06;;;-4.63;72.07
68141;BME280;54941;52.220;104.306;2022-11-20T06:04:43;96125.31;;;-4.64;71.22
68141;BME280;54941;52.220;104.306;2022-11-20T06:07:11;96122.69;;;-4.30;70.31
68141;BME280;54941;52.220;104.306;2022-11-20T06:09:37;96119.28;;;-4.29;69.64
68141;BME280;54941;52.220;104.306;2022-11-20T06:12:04;96111.25;;;-4.55;70.98
68141;BME280;54941;52.220;104.306;2022-11-20T06:14:31;96115.31;;;-4.43;69.67
68141;BME280;54941;52.220;104.306;2022-11-20T06:16:57;96115.31;;;-4.43;69.86
68141;BME280;54941;52.220;104.306;2022-11-20T06:19:24;96112.38;;;-4.48;70.51
68141;BME280;54941;52.220;104.306;2022-11-20T06:21:50;96105.03;;;-4.40;70.06
68141;BME280;54941;52.220;104.306;2022-11-20T06:24:18;96098.84;;;-4.47;69.94
68141;BME280;54941;52.220;104.306;2022-11-20T06:26:45;96100.72;;;-4.49;69.97
68141;BME280;54941;52.220;104.306;2022-11-20T06:29:11;96090.66;;;-4.49;70.76
68141;BME280;54941;52.220;104.306;2022-11-20T06:31:38;96089.25;;;-4.42;69.75
68141;BME280;54941;52.220;104.306;2022-11-20T06:34:04;96084.13;;;-4.40;70.02
68141;BME280;54941;52.220;104.306;2022-11-20T06:36:31;96084.78;;;-4.38;70.09
68141;BME280;54941;52.220;104.306;2022-11-20T06:38:58;96076.00;;;-4.44;69.16
68141;BME280;54941;52.220;104.306;2022-11-20T06:41:26;96076.13;;;-4.25;69.96
68141;BME280;54941;52.220;104.306;2022-11-20T06:43:53;96073.91;;;-4.39;69.38
68141;BME280;54941;52.220;104.306;2022-11-20T06:46:20;96070.28;;;-4.14;69.66
68141;BME280;54941;52.220;104.306;2022-11-20T06:48:47;96064.94;;;-4.00;69.52
68141;BME280;54941;52.220;104.306;2022-11-20T06:51:13;96072.41;;;-4.10;69.13
68141;BME280;54941;52.220;104.306;2022-11-20T06:53:43;96076.78;;;-4.12;69.38
68141;BME280;54941;52.220;104.306;2022-11-20T06:56:09;96068.25;;;-4.00;69.12
68141;BME280;54941;52.220;104.306;2022-11-20T06:58:37;96077.53;;;-4.00;69.72
68141;BME280;54941;52.220;104.306;2022-11-20T07:01:05;96064.03;;;-3.99;69.20
68141;BME280;54941;52.220;104.306;2022-11-20T07:03:32;96071.84;;;-4.13;69.04
68141;BME280;54941;52.220;104.306;2022-11-20T07:06:00;96075.25;;;-4.03;69.74
68141;BME280;54941;52.220;104.306;2022-11-20T07:08:27;96071.94;;;-4.04;70.14
68141;BME280;54941;52.220;104.306;2022-11-20T07:10:57;96075.38;;;-4.05;70.14
68141;BME280;54941;52.220;104.306;2022-11-20T07:13:24;96062.72;;;-3.94;70.89
68141;BME280;54941;52.220;104.306;2022-11-20T07:15:52;96069.69;;;-3.76;70.09
68141;BME280;54941;52.220;104.306;2022-11-20T07:18:18;96071.38;;;-3.86;70.19
68141;BME280;54941;52.220;104.306;2022-11-20T07:20:45;96070.31;;;-3.84;69.66
68141;BME280;54941;52.220;104.306;2022-11-20T07:23:11;96081.66;;;-3.69;69.16
68141;BME280;54941;52.220;104.306;2022-11-20T07:25:37;96077.06;;;-3.64;68.99
68141;BME280;54941;52.220;104.306;2022-11-20T07:28:04;96080.16;;;-3.81;69.39
68141;BME280;54941;52.220;104.306;2022-11-20T07:30:31;96084.00;;;-3.77;69.41
68141;BME280;54941;52.220;104.306;2022-11-20T07:32:58;96079.94;;;-3.68;68.70
68141;BME280;54941;52.220;104.306;2022-11-20T07:35:25;96075.63;;;-3.57;68.26
68141;BME280;54941;52.220;104.306;2022-11-20T07:37:52;96068.34;;;-3.60;67.10
68141;BME280;54941;52.220;104.306;2022-11-20T07:40:19;96068.72;;;-3.55;66.75
68141;BME280;54941;52.220;104.306;2022-11-20T07:42:48;96066.06;;;-3.63;66.58
68141;BME280;54941;52.220;104.306;2022-11-20T07:45:15;96065.31;;;-3.54;65.40
68141;BME280;54941;52.220;104.306;2022-11-20T07:47:41;96058.38;;;-3.61;65.39
68141;BME280;54941;52.220;104.306;2022-11-20T07:50:10;96059.72;;;-3.57;65.41
68141;BME280;54941;52.220;104.306;2022-11-20T07:52:36;96065.53;;;-3.66;65.20
68141;BME280;54941;52.220;104.306;2022-11-20T07:55:03;96063.00;;;-3.66;65.31
68141;BME280;54941;52.220;104.306;2022-11-20T07:57:30;96073.13;;;-3.57;64.59
68141;BME280;54941;52.220;104.306;2022-11-20T07:59:56;96064.50;;;-3.54;64.11
68141;BME280;54941;52.220;104.306;2022-11-20T08:02:22;96063.03;;;-3.57;63.30
68141;BME280;54941;52.220;104.306;2022-11-20T08:04:49;96050.56;;;-3.58;62.93
68141;BME280;54941;52.220;104.306;2022-11-20T08:07:17;96056.56;;;-3.50;62.90
68141;BME280;54941;52.220;104.306;2022-11-20T08:09:44;96071.34;;;-3.66;63.26
68141;BME280;54941;52.220;104.306;2022-11-20T08:12:17;96070.41;;;-3.65;62.88
68141;BME280;54941;52.220;104.306;2022-11-20T08:14:44;96070.38;;;-3.74;62.63
68141;BME280;54941;52.220;104.306;2022-11-20T08:17:10;96071.19;;;-3.74;62.95
68141;BME280;54941;52.220;104.306;2022-11-20T08:19:36;96075.81;;;-3.69;62.56
68141;BME280;54941;52.220;104.306;2022-11-20T08:22:03;96081.53;;;-3.67;62.07
68141;BME280;54941;52.220;104.306;2022-11-20T08:24:31;96088.00;;;-3.74;62.88
68141;BME280;54941;52.220;104.306;2022-11-20T08:26:57;96096.44;;;-3.85;62.24
68141;BME280;54941;52.220;104.306;2022-11-20T08:29:24;96101.63;;;-3.98;62.39
68141;BME280;54941;52.220;104.306;2022-11-20T08:31:50;96101.56;;;-4.07;63.32
68141;BME280;54941;52.220;104.306;2022-11-20T08:34:17;96108.72;;;-4.23;64.40
68141;BME280;54941;52.220;104.306;2022-11-20T08:36:43;96105.72;;;-4.49;65.25
68141;BME280;54941;52.220;104.306;2022-11-20T08:39:11;96103.41;;;-4.84;67.01
68141;BME280;54941;52.220;104.306;2022-11-20T08:41:40;96118.88;;;-5.00;66.96
68141;BME280;54941;52.220;104.306;2022-11-20T08:44:07;96113.38;;;-5.71;69.58
68141;BME280;54941;52.220;104.306;2022-11-20T08:46:35;96118.09;;;-6.13;71.61
68141;BME280;54941;52.220;104.306;2022-11-20T08:49:02;96121.00;;;-6.30;73.10
68141;BME280;54941;52.220;104.306;2022-11-20T08:51:29;96118.13;;;-6.36;74.44
68141;BME280;54941;52.220;104.306;2022-11-20T08:53:56;96130.66;;;-6.60;73.85
68141;BME280;54941;52.220;104.306;2022-11-20T08:56:22;96127.94;;;-6.94;75.37
68141;BME280;54941;52.220;104.306;2022-11-20T08:58:51;96133.22;;;-7.22;76.13
68141;BME280;54941;52.220;104.306;2022-11-20T09:01:18;96135.94;;;-7.38;76.68
68141;BME280;54941;52.220;104.306;2022-11-20T09:03:45;96134.94;;;-7.48;77.49
68141;BME280;54941;52.220;104.306;2022-11-20T09:06:12;96138.03;;;-7.57;77.91
68141;BME280;54941;52.220;104.306;2022-11-20T09:08:38;96151.75;;;-7.62;77.75
68141;BME280;54941;52.220;104.306;2022-11-20T09:11:05;96147.84;;;-7.79;78.43
68141;BME280;54941;52.220;104.306;2022-11-20T09:13:32;96150.66;;;-7.83;79.12
68141;BME280;54941;52.220;104.306;2022-11-20T09:16:02;96157.13;;;-7.94;79.22
68141;BME280;54941;52.220;104.306;2022-11-20T09:18:29;96156.66;;;-8.13;79.17
68141;BME280;54941;52.220;104.306;2022-11-20T09:20:57;96159.16;;;-8.13;79.71
68141;BME280;54941;52.220;104.306;2022-11-20T09:23:24;96165.03;;;-8.26;79.62
68141;BME280;54941;52.220;104.306;2022-11-20T09:25:50;96160.50;;;-8.07;79.98
68141;BME280;54941;52.220;104.306;2022-11-20T09:28:16;96165.34;;;-7.92;80.00
68141;BME280;54941;52.220;104.306;2022-11-20T09:30:43;96158.03;;;-7.95;79.80
68141;BME280;54941;52.220;104.306;2022-11-20T09:33:11;96162.13;;;-8.06;79.70
68141;BME280;54941;52.220;104.306;2022-11-20T09:35:37;96170.75;;;-8.24;78.93
68141;BME280;54941;52.220;104.306;2022-11-20T09:38:07;96175.97;;;-8.54;79.88
68141;BME280;54941;52.220;104.306;2022-11-20T09:40:34;96168.41;;;-8.67;80.84
68141;BME280;54941;52.220;104.306;2022-11-20T09:43:05;96173.84;;;-8.60;80.68
68141;BME280;54941;52.220;104.306;2022-11-20T09:45:43;96181.09;;;-8.70;80.81
68141;BME280;54941;52.220;104.306;2022-11-20T09:48:25;96187.16;;;-8.74;81.05
68141;BME280;54941;52.220;104.306;2022-11-20T09:50:58;96193.59;;;-8.84;81.42
68141;BME280;54941;52.220;104.306;2022-11-20T09:53:35;96195.59;;;-9.03;81.62
68141;BME280;54941;52.220;104.306;2022-11-20T09:56:09;96192.63;;;-8.96;81.81
68141;BME280;54941;52.220;104.306;2022-11-20T09:58:40;96196.41;;;-9.17;81.41
68141;BME280;54941;52.220;104.306;2022-11-20T10:01:10;96197.38;;;-9.05;82.05
68141;BME280;54941;52.220;104.306;2022-11-20T10:03:45;96201.38;;;-9.03;82.39
68141;BME280;54941;52.220;104.306;2022-11-20T10:06:15;96208.69;;;-9.14;82.19
68141;BME280;54941;52.220;104.306;2022-11-20T10:08:47;96212.50;;;-9.08;81.59
68141;BME280;54941;52.220;104.306;2022-11-20T10:11:21;96212.16;;;-9.02;81.47
68141;BME280;54941;52.220;104.306;2022-11-20T10:14:01;96199.94;;;-9.07;81.29
68141;BME280;54941;52.220;104.306;2022-11-20T10:16:41;96193.97;;;-9.18;81.58
68141;BME280;54941;52.220;104.306;2022-11-20T10:19:23;96207.25;;;-9.32;81.95
68141;BME280;54941;52.220;104.306;2022-11-20T10:22:00;96208.03;;;-9.46;81.35
68141;BME280;54941;52.220;104.306;2022-11-20T10:24:42;96212.81;;;-9.57;81.89
68141;BME280;54941;52.220;104.306;2022-11-20T10:27:22;96206.78;;;-9.53;82.50
68141;BME280;54941;52.220;104.306;2022-11-20T10:30:00;96201.03;;;-9.39;82.47
68141;BME280;54941;52.220;104.306;2022-11-20T10:32:31;96211.03;;;-9.69;82.00
68141;BME280;54941;52.220;104.306;2022-11-20T10:35:05;96215.25;;;-9.55;82.14
68141;BME280;54941;52.220;104.306;2022-11-20T10:37:35;96204.22;;;-9.51;81.97
68141;BME280;54941;52.220;104.306;2022-11-20T10:40:04;96211.88;;;-9.54;81.87
68141;BME280;54941;52.220;104.306;2022-11-20T10:42:43;96214.38;;;-9.84;82.05
68141;BME280;54941;52.220;104.306;2022-11-20T10:45:15;96213.22;;;-10.08;82.49
68141;BME280;54941;52.220;104.306;2022-11-20T10:47:45;96211.63;;;-10.39;82.57
68141;BME280;54941;52.220;104.306;2022-11-20T10:50:16;96209.44;;;-10.29;83.87
68141;BME280;54941;52.220;104.306;2022-11-20T10:52:51;96204.06;;;-10.38;83.72
68141;BME280;54941;52.220;104.306;2022-11-20T10:55:28;96207.94;;;-10.32;84.00
68141;BME280;54941;52.220;104.306;2022-11-20T10:58:01;96213.44;;;-10.27;84.48
68141;BME280;54941;52.220;104.306;2022-11-20T11:00:31;96215.47;;;-10.18;84.27
68141;BME280;54941;52.220;104.306;2022-11-20T11:02:57;96217.72;;;-10.29;83.74
68141;BME280;54941;52.220;104.306;2022-11-20T11:05:34;96218.63;;;-10.46;83.66
68141;BME280;54941;52.220;104.306;2022-11-20T11:08:05;96220.97;;;-10.43;83.81
68141;BME280;54941;52.220;104.306;2022-11-20T11:10:39;96216.78;;;-10.42;83.92
68141;BME280;54941;52.220;104.306;2022-11-20T11:13:07;96225.19;;;-10.60;83.32
68141;BME280;54941;52.220;104.306;2022-11-20T11:15:39;96210.19;;;-10.43;83.40
68141;BME280;54941;52.220;104.306;2022-11-20T11:18:09;96216.09;;;-10.30;83.26
68141;BME280;54941;52.220;104.306;2022-11-20T11:20:37;96226.06;;;-10.14;83.39
68141;BME280;54941;52.220;104.306;2022-11-20T11:23:04;96218.59;;;-10.14;83.17
68141;BME280;54941;52.220;104.306;2022-11-20T11:25:31;96219.56;;;-10.32;82.14
68141;BME280;54941;52.220;104.306;2022-11-20T11:28:00;96223.44;;;-10.58;82.10
68141;BME280;54941;52.220;104.306;2022-11-20T11:30:27;96227.69;;;-10.60;82.62
68141;BME280;54941;52.220;104.306;2022-11-20T11:33:05;96217.09;;;-10.79;84.26
68141;BME280;54941;52.220;104.306;2022-11-20T11:35:33;96218.13;;;-10.99;83.75
68141;BME280;54941;52.220;104.306;2022-11-20T11:38:06;96224.13;;;-11.36;82.73
68141;BME280;54941;52.220;104.306;2022-11-20T11:40:35;96221.28;;;-11.28;82.82
68141;BME280;54941;52.220;104.306;2022-11-20T11:43:05;96226.94;;;-11.42;83.10
68141;BME280;54941;52.220;104.306;2022-11-20T11:45:32;96231.59;;;-11.36;83.37
68141;BME280;54941;52.220;104.306;2022-11-20T11:48:01;96218.94;;;-11.31;83.18
68141;BME280;54941;52.220;104.306;2022-11-20T11:50:29;96215.97;;;-11.38;84.60
68141;BME280;54941;52.220;104.306;2022-11-20T11:53:07;96214.34;;;-11.39;84.77
68141;BME280;54941;52.220;104.306;2022-11-20T11:55:37;96214.72;;;-11.47;85.28
68141;BME280;54941;52.220;104.306;2022-11-20T11:58:14;96211.69;;;-11.69;85.08
68141;BME280;54941;52.220;104.306;2022-11-20T12:00:51;96210.34;;;-11.59;84.69
68141;BME280;54941;52.220;104.306;2022-11-20T12:03:22;96218.56;;;-11.57;85.15
68141;BME280;54941;52.220;104.306;2022-11-20T12:05:56;96201.91;;;-10.44;85.07
68141;BME280;54941;52.220;104.306;2022-11-20T12:08:27;96216.19;;;-9.28;83.78
68141;BME280;54941;52.220;104.306;2022-11-20T12:10:59;96212.91;;;-8.59;83.09
68141;BME280;54941;52.220;104.306;2022-11-20T12:13:37;96215.88;;;-8.13;82.26
68141;BME280;54941;52.220;104.306;2022-11-20T12:16:10;96214.06;;;-7.72;81.24
68141;BME280;54941;52.220;104.306;2022-11-20T12:18:39;96219.41;;;-7.51;80.17
68141;BME280;54941;52.220;104.306;2022-11-20T12:21:17;96226.25;;;-7.28;79.09
68141;BME280;54941;52.220;104.306;2022-11-20T12:23:54;96223.63;;;-7.26;78.42
68141;BME280;54941;52.220;104.306;2022-11-20T12:26:35;96229.22;;;-7.23;77.84
68141;BME280;54941;52.220;104.306;2022-11-20T12:29:13;96221.22;;;-7.15;77.78
68141;BME280;54941;52.220;104.306;2022-11-20T12:34:53;96208.31;;;-7.34;77.94
68141;BME280;54941;52.220;104.306;2022-11-20T12:37:32;96214.41;;;-7.51;78.03
68141;BME280;54941;52.220;104.306;2022-11-20T12:40:15;96218.81;;;-7.55;77.92
68141;BME280;54941;52.220;104.306;2022-11-20T12:42:52;96218.09;;;-7.57;78.16
68141;BME280;54941;52.220;104.306;2022-11-20T12:45:34;96210.09;;;-7.62;78.42
68141;BME280;54941;52.220;104.306;2022-11-20T12:48:25;96217.19;;;-7.56;78.99